< < Back
Terminal Aerodrome Forecast


Current Version              Previous Versions:   1  2  3  4  5  6  7  8  9  

Terminal Aerodrome Forecast

762
FTUS42 KGSP 010539
TAFAND
TAF
KAND 010539Z 0106/0206 00000KT P6SM BKN150
     FM011600 18006KT P6SM BKN150
     FM012000 18008KT P6SM OVC030
     FM020000 15006KT 4SM -RA OVC015
     FM020200 18012KT 4SM -RA OVC008=

Latest METAR

349
SAUS70 KWBC 011800 RRX
MTRAND
METAR KAND 011756Z AUTO 29003KT 10SM FEW040 SCT050 OVC060 11/02 A3015
RMK AO2 SLP208 T01060017 10106 20028 58029


USA.gov is the U.S. government's official web portal to all federal, state and local government web resources and services.